sensor_id;sensor_type;location;lat;lon;timestamp;pressure;altitude;pressure_sealevel;temperature;humidity
7480;BME280;3781;42.272;22.658;2022-08-01T00:01:34;94490.41;;;16.33;nan
7480;BME280;3781;42.272;22.658;2022-08-01T00:04:01;94566.16;;;16.58;nan
7480;BME280;3781;42.272;22.658;2022-08-01T00:06:28;94489.69;;;16.08;nan
7480;BME280;3781;42.272;22.658;2022-08-01T00:08:55;94560.31;;;16.40;nan
7480;BME280;3781;42.272;22.658;2022-08-01T00:11:23;94525.00;;;16.20;nan
7480;BME280;3781;42.272;22.658;2022-08-01T00:13:50;94554.09;;;16.41;nan
7480;BME280;3781;42.272;22.658;2022-08-01T00:16:16;94537.41;;;16.34;nan
7480;BME280;3781;42.272;22.658;2022-08-01T00:18:43;94552.28;;;16.50;nan
7480;BME280;3781;42.272;22.658;2022-08-01T00:21:10;94560.28;;;16.48;nan
7480;BME280;3781;42.272;22.658;2022-08-01T00:23:37;94476.81;;;15.91;nan
7480;BME280;3781;42.272;22.658;2022-08-01T00:26:04;94558.69;;;16.31;nan
7480;BME280;3781;42.272;22.658;2022-08-01T00:28:32;94463.66;;;15.68;nan
7480;BME280;3781;42.272;22.658;2022-08-01T00:30:59;94507.09;;;15.93;nan
7480;BME280;3781;42.272;22.658;2022-08-01T00:33:26;94539.09;;;16.19;nan
7480;BME280;3781;42.272;22.658;2022-08-01T00:35:53;94554.09;;;16.33;nan
7480;BME280;3781;42.272;22.658;2022-08-01T00:38:20;94364.31;;;15.11;nan
7480;BME280;3781;42.272;22.658;2022-08-01T00:40:47;94538.00;;;16.06;nan
7480;BME280;3781;42.272;22.658;2022-08-01T00:43:14;94536.22;;;15.98;nan
7480;BME280;3781;42.272;22.658;2022-08-01T00:45:42;94546.31;;;16.17;nan
7480;BME280;3781;42.272;22.658;2022-08-01T00:48:09;94502.22;;;15.82;nan
7480;BME280;3781;42.272;22.658;2022-08-01T00:50:36;94514.13;;;16.01;nan
7480;BME280;3781;42.272;22.658;2022-08-01T00:53:04;94545.97;;;16.20;nan
7480;BME280;3781;42.272;22.658;2022-08-01T00:55:31;94505.44;;;15.92;nan
7480;BME280;3781;42.272;22.658;2022-08-01T00:57:59;94438.16;;;15.54;nan
7480;BME280;3781;42.272;22.658;2022-08-01T01:00:26;94464.78;;;15.73;nan
7480;BME280;3781;42.272;22.658;2022-08-01T01:02:54;94506.09;;;16.02;nan
7480;BME280;3781;42.272;22.658;2022-08-01T01:05:21;94524.59;;;16.01;nan
7480;BME280;3781;42.272;22.658;2022-08-01T01:07:53;94537.16;;;16.05;nan
7480;BME280;3781;42.272;22.658;2022-08-01T01:10:25;94537.53;;;16.02;nan
7480;BME280;3781;42.272;22.658;2022-08-01T01:12:57;94538.53;;;15.93;nan
7480;BME280;3781;42.272;22.658;2022-08-01T01:15:30;94523.19;;;15.74;nan
7480;BME280;3781;42.272;22.658;2022-08-01T01:18:08;94539.22;;;15.79;nan
7480;BME280;3781;42.272;22.658;2022-08-01T01:20:37;94521.59;;;15.57;nan
7480;BME280;3781;42.272;22.658;2022-08-01T01:23:24;94512.44;;;15.29;nan
7480;BME280;3781;42.272;22.658;2022-08-01T01:26:17;94542.53;;;15.57;nan
7480;BME280;3781;42.272;22.658;2022-08-01T01:28:58;94544.16;;;15.74;nan
7480;BME280;3781;42.272;22.658;2022-08-01T01:31:27;94526.81;;;15.65;nan
7480;BME280;3781;42.272;22.658;2022-08-01T01:33:57;94541.88;;;15.63;nan
7480;BME280;3781;42.272;22.658;2022-08-01T01:36:26;94540.06;;;15.55;nan
7480;BME280;3781;42.272;22.658;2022-08-01T01:38:54;94539.44;;;15.61;nan
7480;BME280;3781;42.272;22.658;2022-08-01T01:41:22;94486.78;;;15.24;nan
7480;BME280;3781;42.272;22.658;2022-08-01T01:43:51;94539.13;;;15.48;nan
7480;BME280;3781;42.272;22.658;2022-08-01T01:46:24;94501.16;;;15.12;nan
7480;BME280;3781;42.272;22.658;2022-08-01T01:48:54;94514.06;;;15.30;nan
7480;BME280;3781;42.272;22.658;2022-08-01T01:51:22;94452.56;;;15.34;nan
7480;BME280;3781;42.272;22.658;2022-08-01T01:53:52;94533.28;;;15.93;nan
7480;BME280;3781;42.272;22.658;2022-08-01T01:56:20;94495.84;;;15.84;nan
7480;BME280;3781;42.272;22.658;2022-08-01T01:58:50;94524.94;;;15.98;nan
7480;BME280;3781;42.272;22.658;2022-08-01T02:01:19;94508.09;;;15.84;nan
7480;BME280;3781;42.272;22.658;2022-08-01T02:03:48;94494.44;;;15.58;nan
7480;BME280;3781;42.272;22.658;2022-08-01T02:06:16;94487.56;;;15.49;nan
7480;BME280;3781;42.272;22.658;2022-08-01T02:08:44;94388.22;;;14.84;nan
7480;BME280;3781;42.272;22.658;2022-08-01T02:11:11;94488.72;;;15.30;nan
7480;BME280;3781;42.272;22.658;2022-08-01T02:13:46;94415.84;;;14.63;nan
7480;BME280;3781;42.272;22.658;2022-08-01T02:16:15;94519.78;;;15.17;nan
7480;BME280;3781;42.272;22.658;2022-08-01T02:18:45;94460.94;;;14.73;nan
7480;BME280;3781;42.272;22.658;2022-08-01T02:21:13;94505.22;;;14.98;nan
7480;BME280;3781;42.272;22.658;2022-08-01T02:23:43;94488.22;;;14.94;nan
7480;BME280;3781;42.272;22.658;2022-08-01T02:26:14;94525.50;;;15.37;nan
7480;BME280;3781;42.272;22.658;2022-08-01T02:28:46;94502.63;;;15.23;nan
7480;BME280;3781;42.272;22.658;2022-08-01T02:31:17;94515.72;;;15.31;nan
7480;BME280;3781;42.272;22.658;2022-08-01T02:33:53;94525.19;;;15.24;nan
7480;BME280;3781;42.272;22.658;2022-08-01T02:36:23;94522.25;;;15.27;nan
7480;BME280;3781;42.272;22.658;2022-08-01T02:38:53;94517.84;;;15.35;nan
7480;BME280;3781;42.272;22.658;2022-08-01T02:41:21;94481.22;;;15.19;nan
7480;BME280;3781;42.272;22.658;2022-08-01T02:43:52;94418.47;;;14.79;nan
7480;BME280;3781;42.272;22.658;2022-08-01T02:46:22;94518.66;;;15.28;nan
7480;BME280;3781;42.272;22.658;2022-08-01T02:48:53;94497.41;;;15.06;nan
7480;BME280;3781;42.272;22.658;2022-08-01T02:51:23;94484.00;;;14.93;nan
7480;BME280;3781;42.272;22.658;2022-08-01T02:53:52;94497.72;;;14.95;nan
7480;BME280;3781;42.272;22.658;2022-08-01T02:56:21;94467.97;;;14.72;nan
7480;BME280;3781;42.272;22.658;2022-08-01T02:58:49;94526.16;;;14.98;nan
7480;BME280;3781;42.272;22.658;2022-08-01T03:01:17;94478.41;;;14.56;nan
7480;BME280;3781;42.272;22.658;2022-08-01T03:03:45;94498.84;;;14.61;nan
7480;BME280;3781;42.272;22.658;2022-08-01T03:06:14;94494.38;;;14.37;nan
7480;BME280;3781;42.272;22.658;2022-08-01T03:08:43;94363.44;;;13.24;nan
7480;BME280;3781;42.272;22.658;2022-08-01T03:11:12;94520.16;;;14.32;nan
7480;BME280;3781;42.272;22.658;2022-08-01T03:13:41;94502.75;;;14.07;nan
7480;BME280;3781;42.272;22.658;2022-08-01T03:16:09;94490.28;;;13.93;nan
7480;BME280;3781;42.272;22.658;2022-08-01T03:18:38;94507.25;;;13.97;nan
7480;BME280;3781;42.272;22.658;2022-08-01T03:21:08;94517.84;;;13.87;nan
7480;BME280;3781;42.272;22.658;2022-08-01T03:23:38;94529.03;;;13.80;nan
7480;BME280;3781;42.272;22.658;2022-08-01T03:26:06;94516.13;;;13.70;nan
7480;BME280;3781;42.272;22.658;2022-08-01T03:28:33;94532.69;;;13.87;nan
7480;BME280;3781;42.272;22.658;2022-08-01T03:31:01;94511.78;;;13.87;nan
7480;BME280;3781;42.272;22.658;2022-08-01T03:33:28;94534.00;;;13.91;nan
7480;BME280;3781;42.272;22.658;2022-08-01T03:35:55;94492.69;;;13.52;nan
7480;BME280;3781;42.272;22.658;2022-08-01T03:38:27;94490.69;;;13.46;nan
7480;BME280;3781;42.272;22.658;2022-08-01T03:41:02;94524.41;;;13.66;nan
7480;BME280;3781;42.272;22.658;2022-08-01T03:43:38;94532.47;;;13.80;nan
7480;BME280;3781;42.272;22.658;2022-08-01T03:46:09;94538.91;;;13.94;nan
7480;BME280;3781;42.272;22.658;2022-08-01T03:48:43;94537.97;;;14.03;nan
7480;BME280;3781;42.272;22.658;2022-08-01T03:51:13;94503.31;;;13.85;nan
7480;BME280;3781;42.272;22.658;2022-08-01T03:53:42;94503.97;;;13.95;nan
7480;BME280;3781;42.272;22.658;2022-08-01T03:56:11;94540.53;;;14.28;nan
7480;BME280;3781;42.272;22.658;2022-08-01T03:58:39;94527.28;;;14.22;nan
7480;BME280;3781;42.272;22.658;2022-08-01T04:01:08;94541.59;;;14.44;nan
7480;BME280;3781;42.272;22.658;2022-08-01T04:03:35;94542.09;;;14.47;nan
7480;BME280;3781;42.272;22.658;2022-08-01T04:06:04;94547.00;;;14.58;nan
7480;BME280;3781;42.272;22.658;2022-08-01T04:08:34;94537.88;;;14.54;nan
7480;BME280;3781;42.272;22.658;2022-08-01T04:11:02;94463.59;;;14.15;nan
7480;BME280;3781;42.272;22.658;2022-08-01T04:13:30;94540.66;;;14.69;nan
7480;BME280;3781;42.272;22.658;2022-08-01T04:15:58;94543.81;;;14.80;nan
7480;BME280;3781;42.272;22.658;2022-08-01T04:18:25;94519.94;;;14.75;nan
7480;BME280;3781;42.272;22.658;2022-08-01T04:20:51;94543.81;;;14.96;nan
7480;BME280;3781;42.272;22.658;2022-08-01T04:23:22;94540.09;;;15.07;nan
7480;BME280;3781;42.272;22.658;2022-08-01T04:25:50;94538.75;;;15.03;nan
7480;BME280;3781;42.272;22.658;2022-08-01T04:28:17;94528.78;;;15.06;nan
7480;BME280;3781;42.272;22.658;2022-08-01T04:30:49;94528.94;;;15.29;nan
7480;BME280;3781;42.272;22.658;2022-08-01T04:33:18;94519.97;;;15.24;nan
7480;BME280;3781;42.272;22.658;2022-08-01T04:35:47;94479.41;;;15.11;nan
7480;BME280;3781;42.272;22.658;2022-08-01T04:38:19;94538.59;;;15.61;nan
7480;BME280;3781;42.272;22.658;2022-08-01T04:40:46;94524.53;;;15.54;nan
7480;BME280;3781;42.272;22.658;2022-08-01T04:43:16;94551.16;;;15.90;nan
7480;BME280;3781;42.272;22.658;2022-08-01T04:45:46;94552.41;;;16.02;nan
7480;BME280;3781;42.272;22.658;2022-08-01T04:48:15;94519.38;;;16.01;nan
7480;BME280;3781;42.272;22.658;2022-08-01T04:50:44;94556.34;;;16.44;nan
7480;BME280;3781;42.272;22.658;2022-08-01T04:53:15;94528.75;;;16.65;nan
7480;BME280;3781;42.272;22.658;2022-08-01T04:55:43;94556.00;;;17.31;nan
7480;BME280;3781;42.272;22.658;2022-08-01T04:58:11;94535.66;;;17.56;nan
7480;BME280;3781;42.272;22.658;2022-08-01T05:00:38;94524.03;;;18.02;nan
7480;BME280;3781;42.272;22.658;2022-08-01T05:03:07;94410.13;;;17.95;nan
7480;BME280;3781;42.272;22.658;2022-08-01T05:05:34;94550.41;;;19.67;nan
7480;BME280;3781;42.272;22.658;2022-08-01T05:08:01;94557.00;;;20.39;nan
7480;BME280;3781;42.272;22.658;2022-08-01T05:10:28;94549.25;;;21.26;nan
7480;BME280;3781;42.272;22.658;2022-08-01T05:12:56;94556.84;;;21.94;nan
7480;BME280;3781;42.272;22.658;2022-08-01T05:15:22;94561.84;;;22.68;nan
7480;BME280;3781;42.272;22.658;2022-08-01T05:17:49;94556.69;;;23.23;nan
7480;BME280;3781;42.272;22.658;2022-08-01T05:20:18;94579.19;;;23.83;nan
7480;BME280;3781;42.272;22.658;2022-08-01T05:22:44;94547.75;;;24.12;nan
7480;BME280;3781;42.272;22.658;2022-08-01T05:25:12;94586.91;;;24.95;nan
7480;BME280;3781;42.272;22.658;2022-08-01T05:27:39;94574.94;;;25.22;nan
7480;BME280;3781;42.272;22.658;2022-08-01T05:30:07;94550.94;;;24.81;nan
7480;BME280;3781;42.272;22.658;2022-08-01T05:32:34;94574.47;;;25.25;nan
7480;BME280;3781;42.272;22.658;2022-08-01T05:35:02;94582.50;;;25.96;nan
7480;BME280;3781;42.272;22.658;2022-08-01T05:37:31;94571.13;;;24.82;nan
7480;BME280;3781;42.272;22.658;2022-08-01T05:39:57;94581.88;;;24.51;nan
7480;BME280;3781;42.272;22.658;2022-08-01T05:42:24;94561.69;;;24.86;nan
7480;BME280;3781;42.272;22.658;2022-08-01T05:44:51;94584.25;;;24.95;nan
7480;BME280;3781;42.272;22.658;2022-08-01T05:47:18;94560.66;;;24.02;nan
7480;BME280;3781;42.272;22.658;2022-08-01T05:49:45;94554.22;;;23.35;nan
7480;BME280;3781;42.272;22.658;2022-08-01T05:52:13;94553.28;;;22.66;nan
7480;BME280;3781;42.272;22.658;2022-08-01T05:54:41;94572.09;;;22.18;nan
7480;BME280;3781;42.272;22.658;2022-08-01T05:57:08;94568.78;;;21.31;nan
7480;BME280;3781;42.272;22.658;2022-08-01T05:59:34;94513.28;;;20.64;nan
7480;BME280;3781;42.272;22.658;2022-08-01T06:02:01;94554.22;;;20.47;nan
7480;BME280;3781;42.272;22.658;2022-08-01T06:04:28;94464.16;;;19.82;nan
7480;BME280;3781;42.272;22.658;2022-08-01T06:06:55;94527.25;;;20.17;nan
7480;BME280;3781;42.272;22.658;2022-08-01T06:09:22;94526.03;;;20.20;nan
7480;BME280;3781;42.272;22.658;2022-08-01T06:11:50;94541.88;;;20.20;nan
7480;BME280;3781;42.272;22.658;2022-08-01T06:20:44;94542.50;;;20.56;nan
7480;BME280;3781;42.272;22.658;2022-08-01T06:23:11;94539.72;;;20.77;nan
7480;BME280;3781;42.272;22.658;2022-08-01T06:25:38;94537.97;;;20.97;nan
7480;BME280;3781;42.272;22.658;2022-08-01T06:28:07;94538.69;;;21.26;nan
7480;BME280;3781;42.272;22.658;2022-08-01T06:30:33;94538.41;;;21.08;nan
7480;BME280;3781;42.272;22.658;2022-08-01T06:33:00;94538.44;;;21.14;nan
7480;BME280;3781;42.272;22.658;2022-08-01T06:35:28;94537.06;;;21.25;nan
7480;BME280;3781;42.272;22.658;2022-08-01T06:37:55;94541.53;;;21.24;nan
7480;BME280;3781;42.272;22.658;2022-08-01T06:40:22;94533.03;;;21.42;nan
7480;BME280;3781;42.272;22.658;2022-08-01T06:42:48;94525.28;;;21.60;nan
7480;BME280;3781;42.272;22.658;2022-08-01T06:45:17;94515.13;;;21.50;nan
7480;BME280;3781;42.272;22.658;2022-08-01T06:47:48;94522.84;;;21.65;nan
7480;BME280;3781;42.272;22.658;2022-08-01T06:50:14;94510.69;;;21.64;nan
7480;BME280;3781;42.272;22.658;2022-08-01T06:52:41;94524.91;;;21.76;nan
7480;BME280;3781;42.272;22.658;2022-08-01T06:55:09;94522.84;;;21.78;nan
7480;BME280;3781;42.272;22.658;2022-08-01T06:57:35;94522.47;;;22.07;nan
7480;BME280;3781;42.272;22.658;2022-08-01T07:00:04;94516.72;;;22.23;nan
7480;BME280;3781;42.272;22.658;2022-08-01T07:02:34;94519.97;;;22.25;nan
7480;BME280;3781;42.272;22.658;2022-08-01T07:05:02;94514.59;;;22.51;nan
7480;BME280;3781;42.272;22.658;2022-08-01T07:07:29;94513.41;;;22.47;nan
7480;BME280;3781;42.272;22.658;2022-08-01T07:09:56;94507.66;;;22.70;nan
7480;BME280;3781;42.272;22.658;2022-08-01T07:12:23;94515.66;;;22.95;nan
7480;BME280;3781;42.272;22.658;2022-08-01T07:14:50;94509.53;;;23.32;nan
7480;BME280;3781;42.272;22.658;2022-08-01T07:17:16;94518.56;;;23.56;nan
7480;BME280;3781;42.272;22.658;2022-08-01T07:19:47;94514.63;;;23.89;nan
7480;BME280;3781;42.272;22.658;2022-08-01T07:22:13;94502.19;;;24.15;nan
7480;BME280;3781;42.272;22.658;2022-08-01T07:24:41;94524.78;;;24.42;nan
7480;BME280;3781;42.272;22.658;2022-08-01T07:27:08;94519.31;;;24.55;nan
7480;BME280;3781;42.272;22.658;2022-08-01T07:29:35;94522.78;;;24.73;nan
7480;BME280;3781;42.272;22.658;2022-08-01T07:32:01;94515.34;;;24.82;nan
7480;BME280;3781;42.272;22.658;2022-08-01T07:34:28;94502.22;;;24.51;nan
7480;BME280;3781;42.272;22.658;2022-08-01T07:36:56;94511.72;;;24.22;nan
7480;BME280;3781;42.272;22.658;2022-08-01T07:39:23;94521.56;;;23.90;nan
7480;BME280;3781;42.272;22.658;2022-08-01T07:41:50;94522.81;;;24.13;nan
7480;BME280;3781;42.272;22.658;2022-08-01T07:44:17;94516.28;;;24.33;nan
7480;BME280;3781;42.272;22.658;2022-08-01T07:46:44;94497.84;;;24.38;nan
7480;BME280;3781;42.272;22.658;2022-08-01T07:49:10;94489.22;;;24.61;nan
7480;BME280;3781;42.272;22.658;2022-08-01T07:51:37;94505.44;;;25.07;nan
7480;BME280;3781;42.272;22.658;2022-08-01T07:54:05;94503.28;;;25.27;nan
7480;BME280;3781;42.272;22.658;2022-08-01T07:56:33;94505.56;;;25.54;nan
7480;BME280;3781;42.272;22.658;2022-08-01T07:58:59;94495.00;;;25.88;nan
7480;BME280;3781;42.272;22.658;2022-08-01T08:01:26;94500.69;;;25.92;nan
7480;BME280;3781;42.272;22.658;2022-08-01T08:03:53;94500.59;;;25.46;nan
7480;BME280;3781;42.272;22.658;2022-08-01T08:06:20;94509.44;;;25.58;nan
7480;BME280;3781;42.272;22.658;2022-08-01T08:08:47;94506.31;;;25.84;nan
7480;BME280;3781;42.272;22.658;2022-08-01T08:11:15;94505.88;;;25.87;nan
7480;BME280;3781;42.272;22.658;2022-08-01T08:13:41;94505.53;;;25.95;nan
7480;BME280;3781;42.272;22.658;2022-08-01T08:16:08;94509.00;;;26.07;nan
7480;BME280;3781;42.272;22.658;2022-08-01T08:18:35;94511.38;;;25.62;nan
7480;BME280;3781;42.272;22.658;2022-08-01T08:21:03;94495.34;;;26.03;nan
7480;BME280;3781;42.272;22.658;2022-08-01T08:23:30;94503.81;;;26.35;nan
7480;BME280;3781;42.272;22.658;2022-08-01T08:26:15;94506.72;;;26.10;nan
7480;BME280;3781;42.272;22.658;2022-08-01T08:28:42;94505.78;;;26.28;nan
7480;BME280;3781;42.272;22.658;2022-08-01T08:31:09;94515.00;;;26.60;nan
7480;BME280;3781;42.272;22.658;2022-08-01T08:33:36;94513.16;;;26.72;nan
7480;BME280;3781;42.272;22.658;2022-08-01T08:36:03;94505.22;;;27.01;nan
7480;BME280;3781;42.272;22.658;2022-08-01T08:38:30;94495.69;;;27.05;nan
7480;BME280;3781;42.272;22.658;2022-08-01T08:40:57;94502.75;;;27.39;nan
7480;BME280;3781;42.272;22.658;2022-08-01T08:43:25;94515.94;;;28.23;nan
7480;BME280;3781;42.272;22.658;2022-08-01T08:45:52;94509.09;;;29.09;nan
7480;BME280;3781;42.272;22.658;2022-08-01T08:48:20;94510.44;;;29.87;nan
7480;BME280;3781;42.272;22.658;2022-08-01T08:50:48;94524.94;;;30.59;nan
7480;BME280;3781;42.272;22.658;2022-08-01T08:53:16;94508.66;;;31.33;nan
7480;BME280;3781;42.272;22.658;2022-08-01T08:55:43;94521.44;;;31.10;nan
7480;BME280;3781;42.272;22.658;2022-08-01T08:58:12;94516.50;;;29.50;nan
7480;BME280;3781;42.272;22.658;2022-08-01T09:00:41;94509.94;;;28.93;nan
7480;BME280;3781;42.272;22.658;2022-08-01T09:03:08;94505.38;;;28.50;nan
7480;BME280;3781;42.272;22.658;2022-08-01T09:05:35;94505.63;;;27.66;nan
7480;BME280;3781;42.272;22.658;2022-08-01T09:08:06;94499.72;;;27.47;nan
7480;BME280;3781;42.272;22.658;2022-08-01T09:10:33;94505.00;;;29.50;nan
7480;BME280;3781;42.272;22.658;2022-08-01T09:13:06;94501.56;;;32.04;nan
7480;BME280;3781;42.272;22.658;2022-08-01T09:15:43;94502.72;;;33.07;nan
7480;BME280;3781;42.272;22.658;2022-08-01T09:18:28;94509.06;;;34.52;nan
7480;BME280;3781;42.272;22.658;2022-08-01T09:21:10;94492.88;;;34.52;nan
7480;BME280;3781;42.272;22.658;2022-08-01T09:23:39;94483.50;;;33.33;nan
7480;BME280;3781;42.272;22.658;2022-08-01T09:26:08;94497.19;;;33.42;nan
7480;BME280;3781;42.272;22.658;2022-08-01T09:28:36;94505.34;;;33.76;nan
7480;BME280;3781;42.272;22.658;2022-08-01T09:31:09;94488.38;;;34.95;nan
7480;BME280;3781;42.272;22.658;2022-08-01T09:33:51;94486.66;;;35.46;nan
7480;BME280;3781;42.272;22.658;2022-08-01T09:36:20;94500.06;;;33.99;nan
7480;BME280;3781;42.272;22.658;2022-08-01T09:38:47;94495.38;;;31.98;nan
7480;BME280;3781;42.272;22.658;2022-08-01T09:41:14;94466.47;;;30.51;nan
7480;BME280;3781;42.272;22.658;2022-08-01T09:43:47;94492.09;;;30.32;nan
7480;BME280;3781;42.272;22.658;2022-08-01T09:46:17;94485.03;;;31.35;nan
7480;BME280;3781;42.272;22.658;2022-08-01T09:49:00;94493.19;;;32.40;nan
7480;BME280;3781;42.272;22.658;2022-08-01T09:51:29;94491.28;;;31.60;nan
7480;BME280;3781;42.272;22.658;2022-08-01T09:53:56;94471.03;;;30.56;nan
7480;BME280;3781;42.272;22.658;2022-08-01T09:56:23;94470.91;;;29.99;nan
7480;BME280;3781;42.272;22.658;2022-08-01T09:58:51;94471.22;;;30.91;nan
7480;BME280;3781;42.272;22.658;2022-08-01T10:01:21;94477.97;;;30.51;nan
7480;BME280;3781;42.272;22.658;2022-08-01T10:04:04;94452.97;;;30.41;nan
7480;BME280;3781;42.272;22.658;2022-08-01T10:06:31;94480.84;;;31.79;nan
7480;BME280;3781;42.272;22.658;2022-08-01T10:08:58;94468.28;;;32.99;nan
7480;BME280;3781;42.272;22.658;2022-08-01T10:11:25;94475.50;;;33.13;nan
7480;BME280;3781;42.272;22.658;2022-08-01T10:13:52;94471.09;;;33.37;nan
7480;BME280;3781;42.272;22.658;2022-08-01T10:16:21;94476.56;;;33.71;nan
7480;BME280;3781;42.272;22.658;2022-08-01T10:18:49;94462.16;;;33.86;nan
7480;BME280;3781;42.272;22.658;2022-08-01T10:21:16;94460.31;;;33.81;nan
7480;BME280;3781;42.272;22.658;2022-08-01T10:23:45;94458.53;;;34.05;nan
7480;BME280;3781;42.272;22.658;2022-08-01T10:26:12;94464.75;;;34.01;nan
7480;BME280;3781;42.272;22.658;2022-08-01T10:28:39;94461.41;;;34.43;nan
7480;BME280;3781;42.272;22.658;2022-08-01T10:31:07;94456.22;;;33.01;nan
7480;BME280;3781;42.272;22.658;2022-08-01T10:33:35;94452.66;;;32.02;nan
7480;BME280;3781;42.272;22.658;2022-08-01T10:36:05;94449.41;;;31.89;nan
7480;BME280;3781;42.272;22.658;2022-08-01T10:38:33;94449.16;;;31.96;nan
7480;BME280;3781;42.272;22.658;2022-08-01T10:41:02;94445.91;;;31.64;nan
7480;BME280;3781;42.272;22.658;2022-08-01T10:43:31;94442.94;;;32.26;nan
7480;BME280;3781;42.272;22.658;2022-08-01T10:45:58;94455.41;;;32.91;nan
7480;BME280;3781;42.272;22.658;2022-08-01T10:48:30;94452.50;;;34.13;nan
7480;BME280;3781;42.272;22.658;2022-08-01T10:51:03;94458.78;;;34.85;nan
7480;BME280;3781;42.272;22.658;2022-08-01T10:53:30;94441.09;;;35.21;nan
7480;BME280;3781;42.272;22.658;2022-08-01T10:55:59;94436.31;;;35.55;nan
7480;BME280;3781;42.272;22.658;2022-08-01T10:58:28;94445.84;;;35.85;nan
7480;BME280;3781;42.272;22.658;2022-08-01T11:01:21;94441.75;;;36.20;nan
7480;BME280;3781;42.272;22.658;2022-08-01T11:04:02;94444.31;;;32.18;nan
7480;BME280;3781;42.272;22.658;2022-08-01T11:06:40;94430.34;;;32.06;nan
7480;BME280;3781;42.272;22.658;2022-08-01T11:09:27;94435.88;;;33.29;nan
7480;BME280;3781;42.272;22.658;2022-08-01T11:11:59;94436.22;;;34.52;nan
7480;BME280;3781;42.272;22.658;2022-08-01T11:14:27;94433.25;;;35.62;nan
7480;BME280;3781;42.272;22.658;2022-08-01T11:16:54;94417.63;;;33.93;nan
7480;BME280;3781;42.272;22.658;2022-08-01T11:19:21;94412.06;;;32.97;nan
7480;BME280;3781;42.272;22.658;2022-08-01T11:21:59;94414.38;;;34.54;nan
7480;BME280;3781;42.272;22.658;2022-08-01T11:25:02;94422.47;;;33.91;nan
7480;BME280;3781;42.272;22.658;2022-08-01T11:27:30;94418.09;;;34.05;nan
7480;BME280;3781;42.272;22.658;2022-08-01T11:30:22;94417.78;;;35.07;nan
7480;BME280;3781;42.272;22.658;2022-08-01T11:32:52;94401.84;;;34.63;nan
7480;BME280;3781;42.272;22.658;2022-08-01T11:35:19;94411.09;;;33.27;nan
7480;BME280;3781;42.272;22.658;2022-08-01T11:37:50;94391.28;;;34.43;nan
7480;BME280;3781;42.272;22.658;2022-08-01T11:40:19;94405.66;;;35.79;nan
7480;BME280;3781;42.272;22.658;2022-08-01T11:42:47;94355.03;;;36.30;nan
7480;BME280;3781;42.272;22.658;2022-08-01T11:45:14;94393.81;;;37.21;nan
7480;BME280;3781;42.272;22.658;2022-08-01T11:47:45;94402.81;;;38.10;nan
7480;BME280;3781;42.272;22.658;2022-08-01T11:50:32;94410.88;;;35.56;nan
7480;BME280;3781;42.272;22.658;2022-08-01T11:53:04;94391.72;;;33.69;nan
7480;BME280;3781;42.272;22.658;2022-08-01T11:55:31;94386.94;;;33.89;nan
7480;BME280;3781;42.272;22.658;2022-08-01T11:58:00;94393.34;;;35.73;nan
7480;BME280;3781;42.272;22.658;2022-08-01T12:00:28;94391.09;;;37.21;nan
7480;BME280;3781;42.272;22.658;2022-08-01T12:03:00;94382.66;;;37.36;nan
7480;BME280;3781;42.272;22.658;2022-08-01T12:05:29;94355.63;;;36.68;nan
7480;BME280;3781;42.272;22.658;2022-08-01T12:07:57;94399.66;;;33.06;nan
7480;BME280;3781;42.272;22.658;2022-08-01T12:10:28;94394.88;;;31.74;nan
7480;BME280;3781;42.272;22.658;2022-08-01T12:13:00;94403.38;;;30.90;nan
7480;BME280;3781;42.272;22.658;2022-08-01T12:15:30;94394.84;;;31.89;nan
7480;BME280;3781;42.272;22.658;2022-08-01T12:17:59;94377.88;;;33.41;nan
7480;BME280;3781;42.272;22.658;2022-08-01T12:20:27;94394.09;;;35.22;nan
7480;BME280;3781;42.272;22.658;2022-08-01T12:22:55;94399.88;;;36.04;nan
7480;BME280;3781;42.272;22.658;2022-08-01T12:25:22;94387.25;;;36.13;nan
7480;BME280;3781;42.272;22.658;2022-08-01T12:27:50;94389.66;;;37.37;nan
7480;BME280;3781;42.272;22.658;2022-08-01T12:30:18;94393.16;;;35.83;nan
7480;BME280;3781;42.272;22.658;2022-08-01T12:32:47;94390.59;;;35.40;nan
7480;BME280;3781;42.272;22.658;2022-08-01T12:35:16;94375.16;;;35.92;nan
7480;BME280;3781;42.272;22.658;2022-08-01T12:37:44;94369.66;;;36.29;nan
7480;BME280;3781;42.272;22.658;2022-08-01T12:40:13;94389.06;;;35.53;nan
7480;BME280;3781;42.272;22.658;2022-08-01T12:42:42;94385.31;;;35.30;nan
7480;BME280;3781;42.272;22.658;2022-08-01T12:45:13;94383.53;;;34.83;nan
7480;BME280;3781;42.272;22.658;2022-08-01T12:47:40;94382.03;;;35.52;nan
7480;BME280;3781;42.272;22.658;2022-08-01T12:50:11;94385.44;;;37.66;nan
7480;BME280;3781;42.272;22.658;2022-08-01T12:52:39;94386.09;;;39.68;nan
7480;BME280;3781;42.272;22.658;2022-08-01T12:55:12;94383.97;;;40.72;nan
7480;BME280;3781;42.272;22.658;2022-08-01T12:57:41;94384.91;;;35.23;nan
7480;BME280;3781;42.272;22.658;2022-08-01T13:00:29;94386.91;;;33.22;nan
7480;BME280;3781;42.272;22.658;2022-08-01T13:03:01;94377.16;;;32.03;nan
7480;BME280;3781;42.272;22.658;2022-08-01T13:05:40;94360.22;;;32.08;nan
7480;BME280;3781;42.272;22.658;2022-08-01T13:08:09;94352.34;;;32.36;nan
7480;BME280;3781;42.272;22.658;2022-08-01T13:10:36;94365.28;;;32.88;nan
7480;BME280;3781;42.272;22.658;2022-08-01T13:13:03;94362.06;;;32.86;nan
7480;BME280;3781;42.272;22.658;2022-08-01T13:15:33;94362.75;;;32.58;nan
7480;BME280;3781;42.272;22.658;2022-08-01T13:18:01;94373.28;;;34.62;nan
7480;BME280;3781;42.272;22.658;2022-08-01T13:20:48;94375.13;;;36.56;nan
7480;BME280;3781;42.272;22.658;2022-08-01T13:23:16;94370.75;;;38.73;nan
7480;BME280;3781;42.272;22.658;2022-08-01T13:25:50;94366.44;;;40.52;nan
7480;BME280;3781;42.272;22.658;2022-08-01T13:28:19;94372.78;;;40.10;nan
7480;BME280;3781;42.272;22.658;2022-08-01T13:30:59;94356.13;;;36.83;nan
7480;BME280;3781;42.272;22.658;2022-08-01T13:33:27;94370.31;;;35.75;nan
7480;BME280;3781;42.272;22.658;2022-08-01T13:35:56;94375.25;;;36.19;nan
7480;BME280;3781;42.272;22.658;2022-08-01T13:38:23;94348.75;;;35.01;nan
7480;BME280;3781;42.272;22.658;2022-08-01T13:41:03;94356.03;;;33.43;nan
7480;BME280;3781;42.272;22.658;2022-08-01T13:43:30;94361.63;;;33.18;nan
7480;BME280;3781;42.272;22.658;2022-08-01T13:45:58;94363.84;;;33.78;nan
7480;BME280;3781;42.272;22.658;2022-08-01T13:48:28;94371.16;;;33.39;nan
7480;BME280;3781;42.272;22.658;2022-08-01T13:50:54;94364.31;;;34.43;nan